Time;durP1;ratioP1;P1;durP2;ratioP2;P2;SDS_P1;SDS_P2;PMS_P1;PMS_P2;Temp;Humidity;BMP_temperature;BMP_pressure;BME280_temperature;BME280_humidity;BME280_pressure;Samples;Min_cycle;Max_cycle;Signal;HPM_P1;HPM_P2
2022/08/17 00:00:13;;;;;;;28.27;19.65;;;21.40;89.70;;;;;;5054452;28;20021;-59
2022/08/17 00:03:14;;;;;;;28.55;20.50;;;21.40;89.90;;;;;;5053467;28;20481;-59
2022/08/17 00:05:42;;;;;;;26.63;19.58;;;21.30;90.00;;;;;;5054205;28;20033;-61
2022/08/17 00:08:09;;;;;;;27.20;19.52;;;21.20;90.20;;;;;;5054230;28;20057;-59
2022/08/17 00:10:35;;;;;;;22.15;17.88;;;21.10;90.40;;;;;;5054503;28;20426;-63
2022/08/17 00:13:09;;;;;;;26.05;18.40;;;21.10;90.40;;;;;;5054820;28;20086;-59
2022/08/17 00:15:36;;;;;;;23.30;18.13;;;21.00;90.50;;;;;;5054090;28;20022;-59
2022/08/17 00:18:01;;;;;;;22.23;17.25;;;20.90;90.50;;;;;;5054490;28;20052;-60
2022/08/17 00:20:27;;;;;;;29.67;20.17;;;20.90;90.70;;;;;;5054374;28;20068;-59
2022/08/17 00:23:08;;;;;;;25.58;20.27;;;20.90;91.00;;;;;;5053607;28;20033;-59
2022/08/17 00:25:33;;;;;;;;;;;20.80;91.10;;;;;;5055133;28;20025;-59
2022/08/17 00:27:59;;;;;;;36.83;20.67;;;20.80;91.20;;;;;;5053771;28;19912;-61
2022/08/17 00:30:25;;;;;;;27.13;20.73;;;20.70;91.20;;;;;;5054450;28;20526;-60
2022/08/17 00:32:51;;;;;;;28.75;20.23;;;20.70;91.30;;;;;;5054123;28;20028;-59
2022/08/17 00:35:22;;;;;;;24.98;19.80;;;20.60;91.40;;;;;;5053920;28;20036;-59
2022/08/17 00:37:48;;;;;;;23.45;19.00;;;20.60;91.60;;;;;;5054300;28;20028;-59
2022/08/17 00:40:14;;;;;;;23.77;17.58;;;20.50;91.60;;;;;;5053834;28;20066;-59
2022/08/17 00:42:41;;;;;;;25.40;17.58;;;20.40;91.70;;;;;;5053515;28;20108;-62
2022/08/17 00:45:09;;;;;;;24.02;17.98;;;20.30;91.70;;;;;;5054234;28;20041;-63
2022/08/17 00:47:35;;;;;;;23.90;18.60;;;20.30;91.90;;;;;;5054383;28;20017;-61
2022/08/17 00:50:02;;;;;;;24.00;18.95;;;20.20;92.10;;;;;;5053297;28;20032;-61
2022/08/17 00:52:34;;;;;;;24.00;17.42;;;20.20;92.20;;;;;;5053691;28;20021;-61
2022/08/17 00:55:01;;;;;;;20.98;15.93;;;20.10;92.30;;;;;;5053812;28;20029;-58
2022/08/17 00:57:40;;;;;;;20.70;16.85;;;20.10;92.30;;;;;;5053245;28;20049;-66
2022/08/17 01:00:13;;;;;;;20.60;16.70;;;20.10;92.30;;;;;;5053843;28;20496;-62
2022/08/17 01:02:42;;;;;;;20.77;15.30;;;20.10;92.30;;;;;;5052501;28;20127;-62
2022/08/17 01:05:23;;;;;;;22.95;17.50;;;20.10;92.20;;;;;;5053347;28;20116;-60
2022/08/17 01:07:49;;;;;;;24.60;19.67;;;20.10;92.40;;;;;;5053747;28;20032;-62
2022/08/17 01:10:20;;;;;;;25.05;18.15;;;20.00;92.70;;;;;;5052292;28;20029;-63
2022/08/17 01:12:45;;;;;;;22.55;16.45;;;20.00;92.70;;;;;;5053909;28;20100;-64
2022/08/17 01:15:11;;;;;;;23.52;18.35;;;20.00;92.70;;;;;;5053943;28;20064;-65
2022/08/17 01:17:37;;;;;;;23.73;18.48;;;20.00;92.70;;;;;;5053285;28;20025;-62
2022/08/17 01:20:03;;;;;;;23.85;19.13;;;19.90;93.00;;;;;;5053508;28;20057;-64
2022/08/17 01:22:31;;;;;;;27.52;19.70;;;19.90;93.10;;;;;;5053258;28;20021;-65
2022/08/17 01:24:59;;;;;;;27.58;19.80;;;19.80;93.10;;;;;;5053026;28;20047;-64
2022/08/17 01:27:26;;;;;;;22.35;16.70;;;19.80;93.20;;;;;;5053478;28;20121;-63
2022/08/17 01:29:57;;;;;;;24.20;18.33;;;19.90;93.10;;;;;;5053475;28;20071;-61
2022/08/17 01:32:24;;;;;;;;;;;19.90;93.10;;;;;;5052883;28;20032;-60
2022/08/17 01:34:49;;;;;;;23.58;18.27;;;19.70;93.10;;;;;;5053219;28;19905;-60
2022/08/17 01:37:17;;;;;;;23.95;18.35;;;19.70;93.10;;;;;;5053270;28;20067;-62
2022/08/17 01:39:50;;;;;;;27.40;20.60;;;19.60;93.30;;;;;;5052337;28;20052;-62
2022/08/17 01:42:45;;;;;;;29.90;19.58;;;19.60;93.60;;;;;;5052801;28;20037;-60
2022/08/17 01:45:16;;;;;;;22.35;17.73;;;19.60;93.60;;;;;;5052434;28;20033;-59
2022/08/17 01:47:41;;;;;;;22.90;16.60;;;19.60;93.80;;;;;;5052845;28;20025;-59
2022/08/17 01:50:15;;;;;;;24.92;18.38;;;19.70;93.40;;;;;;5052952;28;20029;-60
2022/08/17 01:52:44;;;;;;;24.08;18.35;;;19.70;93.30;;;;;;5050043;28;20035;-62
2022/08/17 01:55:10;;;;;;;24.85;19.02;;;19.80;93.30;;;;;;5052848;28;20025;-61
2022/08/17 01:57:35;;;;;;;25.80;18.10;;;19.80;93.30;;;;;;5052721;28;20040;-59
2022/08/17 02:00:03;;;;;;;24.10;18.00;;;19.80;93.20;;;;;;5052047;28;20028;-62
2022/08/17 02:02:29;;;;;;;28.63;19.95;;;19.70;93.10;;;;;;5052502;28;20021;-61
2022/08/17 02:04:55;;;;;;;26.33;19.75;;;19.70;93.30;;;;;;5052519;28;20440;-59
2022/08/17 02:07:20;;;;;;;24.20;18.38;;;19.60;93.40;;;;;;5051969;28;20024;-59
2022/08/17 02:09:46;;;;;;;26.00;19.60;;;19.60;93.40;;;;;;5052379;28;20033;-62
2022/08/17 02:12:11;;;;;;;25.42;18.42;;;19.60;93.40;;;;;;5052648;28;20017;-60
2022/08/17 02:14:37;;;;;;;24.90;18.42;;;19.60;93.40;;;;;;5051543;28;20029;-59
2022/08/17 02:17:03;;;;;;;27.50;19.10;;;19.60;93.40;;;;;;5052316;28;20021;-60
2022/08/17 02:19:30;;;;;;;27.10;19.48;;;19.60;93.40;;;;;;5052375;28;20025;-60
2022/08/17 02:21:55;;;;;;;27.75;19.67;;;19.60;93.40;;;;;;5051399;28;20029;-60
2022/08/17 02:24:26;;;;;;;29.52;20.48;;;19.50;93.50;;;;;;5051032;28;20342;-60
2022/08/17 02:26:52;;;;;;;;;;;19.40;93.60;;;;;;5052688;28;20378;-63
2022/08/17 02:29:18;;;;;;;24.88;18.60;;;19.30;93.70;;;;;;5051690;28;19904;-60
2022/08/17 02:31:44;;;;;;;29.02;20.52;;;19.30;93.80;;;;;;5052039;28;20082;-60
2022/08/17 02:34:10;;;;;;;29.25;20.13;;;19.20;93.90;;;;;;5052189;28;20374;-59
2022/08/17 02:36:36;;;;;;;27.50;19.30;;;19.20;94.00;;;;;;5051235;28;20025;-60
2022/08/17 02:39:08;;;;;;;26.38;19.23;;;19.20;94.00;;;;;;5052071;28;20033;-60
2022/08/17 02:41:35;;;;;;;30.35;21.92;;;19.20;94.00;;;;;;5051244;28;20075;-60
2022/08/17 02:44:01;;;;;;;27.10;19.60;;;19.20;94.10;;;;;;5051711;28;20143;-61
2022/08/17 02:46:27;;;;;;;26.42;18.42;;;19.20;94.00;;;;;;5052087;28;20059;-59
2022/08/17 02:48:52;;;;;;;24.55;18.13;;;19.20;94.00;;;;;;5051335;28;20029;-66
2022/08/17 02:51:18;;;;;;;25.55;19.70;;;19.30;93.90;;;;;;5051867;28;20369;-65
2022/08/17 02:53:45;;;;;;;26.92;19.38;;;19.30;93.90;;;;;;5052437;28;20115;-65
2022/08/17 02:56:11;;;;;;;26.30;18.77;;;19.30;93.80;;;;;;5049635;28;20027;-64
2022/08/17 02:58:36;;;;;;;27.02;19.65;;;19.20;93.80;;;;;;5052259;28;20380;-60
2022/08/17 03:01:08;;;;;;;28.30;20.15;;;19.20;93.80;;;;;;5051824;28;20021;-65
2022/08/17 03:03:34;;;;;;;24.17;17.92;;;19.10;94.00;;;;;;5050115;28;20029;-64
2022/08/17 03:06:00;;;;;;;29.70;20.52;;;19.00;94.00;;;;;;5051892;28;20112;-63
2022/08/17 03:08:26;;;;;;;26.48;19.27;;;19.00;94.20;;;;;;5051731;28;20155;-59
2022/08/17 03:10:52;;;;;;;28.02;20.65;;;19.00;94.30;;;;;;5051403;28;20025;-59
2022/08/17 03:13:17;;;;;;;28.38;20.30;;;18.90;94.20;;;;;;5051848;28;20021;-60
2022/08/17 03:15:44;;;;;;;25.58;19.48;;;18.90;94.30;;;;;;5051721;28;20486;-59
2022/08/17 03:18:12;;;;;;;29.02;20.15;;;18.90;94.40;;;;;;5049635;28;20025;-66
2022/08/17 03:20:38;;;;;;;29.38;22.17;;;18.90;94.50;;;;;;5051419;28;20031;-57
2022/08/17 03:23:04;;;;;;;26.13;18.85;;;18.80;94.60;;;;;;5051561;28;20127;-61
2022/08/17 03:25:37;;;;;;;28.80;20.00;;;18.90;94.60;;;;;;5050682;28;20017;-61
2022/08/17 03:28:04;;;;;;;26.17;20.25;;;18.90;94.60;;;;;;5051559;28;20032;-61
2022/08/17 03:30:30;;;;;;;29.83;21.08;;;18.90;94.60;;;;;;5051268;28;20070;-62
2022/08/17 03:33:04;;;;;;;28.52;20.85;;;18.90;94.50;;;;;;5049756;28;20021;-60
2022/08/17 03:35:32;;;;;;;26.85;19.92;;;19.00;94.60;;;;;;5051419;28;20017;-59
2022/08/17 03:37:58;;;;;;;26.80;20.35;;;19.00;94.60;;;;;;5050705;28;20460;-60
2022/08/17 03:40:24;;;;;;;29.45;20.17;;;19.10;94.50;;;;;;5050949;28;20841;-62
2022/08/17 03:42:53;;;;;;;30.30;21.33;;;19.20;94.40;;;;;;5051471;28;20082;-59
2022/08/17 03:56:41;;;;;;;27.02;19.85;;;19.30;94.30;;;;;;5050529;28;20029;-60
2022/08/17 03:56:41;;;;;;;27.48;20.23;;;19.50;93.90;;;;;;5050889;28;20444;-60
2022/08/17 03:59:07;;;;;;;30.55;20.67;;;19.50;93.80;;;;;;5050401;28;20025;-60
2022/08/17 04:01:33;;;;;;;28.77;19.77;;;19.50;93.80;;;;;;5050826;28;20051;-61
2022/08/17 04:03:58;;;;;;;28.40;21.02;;;19.60;93.80;;;;;;5051057;28;20036;-61
2022/08/17 04:06:24;;;;;;;27.75;18.70;;;19.60;93.80;;;;;;5050160;28;20028;-60
2022/08/17 04:08:49;;;;;;;24.25;16.95;;;19.60;93.70;;;;;;5051110;28;20462;-61
2022/08/17 04:11:15;;;;;;;25.20;18.63;;;19.60;93.60;;;;;;5050869;28;20100;-60
2022/08/17 04:13:41;;;;;;;28.23;19.05;;;19.60;93.60;;;;;;5049272;28;20029;-59
2022/08/17 04:16:07;;;;;;;26.52;19.77;;;19.70;93.60;;;;;;5054265;28;20512;-62
2022/08/17 04:18:32;;;;;;;27.15;19.77;;;19.70;93.50;;;;;;5054524;28;20057;-61
2022/08/17 04:20:58;;;;;;;28.45;19.00;;;19.70;93.50;;;;;;5054001;28;20013;-61
2022/08/17 04:23:27;;;;;;;28.02;18.85;;;19.70;93.50;;;;;;5054447;28;20032;-61
2022/08/17 04:25:52;;;;;;;23.90;17.75;;;19.70;93.40;;;;;;5054585;28;20067;-65
2022/08/17 04:28:19;;;;;;;27.38;19.65;;;19.70;93.40;;;;;;5053791;28;20099;-61
2022/08/17 04:30:46;;;;;;;27.85;20.77;;;19.70;93.30;;;;;;5054322;28;20029;-61
2022/08/17 04:33:17;;;;;;;29.38;21.85;;;19.70;93.30;;;;;;5054319;28;20040;-62
2022/08/17 04:35:45;;;;;;;25.70;18.00;;;19.70;93.70;;;;;;5053870;28;20102;-65
2022/08/17 04:38:15;;;;;;;31.25;21.75;;;19.70;93.40;;;;;;5054457;28;20029;-62
2022/08/17 04:43:27;;;;;;;29.85;20.17;;;19.70;93.50;;;;;;5054220;28;20051;-62
2022/08/17 04:45:59;;;;;;;29.08;21.13;;;19.70;93.50;;;;;;5054153;28;20044;-64
2022/08/17 04:48:27;;;;;;;31.42;20.67;;;19.70;93.50;;;;;;5053731;28;20052;-59
2022/08/17 04:50:52;;;;;;;27.17;20.08;;;19.70;93.50;;;;;;5054052;28;20100;-65
2022/08/17 04:53:20;;;;;;;35.05;23.52;;;19.70;93.40;;;;;;5054016;28;20504;-63
2022/08/17 04:55:46;;;;;;;26.77;19.33;;;19.70;93.50;;;;;;5053617;28;20017;-58
2022/08/17 04:58:12;;;;;;;26.05;20.17;;;19.70;93.40;;;;;;5053807;28;20071;-63
2022/08/17 05:00:38;;;;;;;26.42;18.88;;;19.80;93.30;;;;;;5053999;28;20024;-62
2022/08/17 05:03:04;;;;;;;26.63;19.17;;;19.80;93.20;;;;;;5051991;28;20385;-61
2022/08/17 05:05:35;;;;;;;30.73;20.27;;;19.90;93.10;;;;;;5053911;28;20025;-60
2022/08/17 05:08:03;;;;;;;30.77;20.35;;;19.90;93.10;;;;;;5053801;28;20459;-62
2022/08/17 05:10:31;;;;;;;26.00;18.85;;;19.90;93.10;;;;;;5053002;28;20025;-65
2022/08/17 05:13:09;;;;;;;27.60;18.17;;;19.90;93.00;;;;;;5053734;28;20071;-60
2022/08/17 05:15:37;;;;;;;24.65;17.55;;;19.90;92.90;;;;;;5053575;28;20509;-61
2022/08/17 05:18:03;;;;;;;27.98;18.90;;;19.90;92.90;;;;;;5052760;28;20059;-60
2022/08/17 05:20:30;;;;;;;25.63;18.50;;;20.00;92.90;;;;;;5052281;28;20466;-61
2022/08/17 05:22:59;;;;;;;29.13;21.33;;;20.00;92.80;;;;;;5051983;28;20033;-60
2022/08/17 05:25:29;;;;;;;28.13;19.60;;;20.00;92.90;;;;;;5051617;28;20099;-62
2022/08/17 05:27:55;;;;;;;27.15;19.85;;;20.10;92.80;;;;;;5052891;28;20021;-60
2022/08/17 05:30:22;;;;;;;29.80;21.20;;;20.20;92.80;;;;;;5051624;28;20075;-62
2022/08/17 05:32:57;;;;;;;30.05;20.55;;;20.20;92.70;;;;;;5051689;28;20021;-59
2022/08/17 05:35:23;;;;;;;29.88;21.25;;;20.30;92.60;;;;;;5051038;28;20021;-59
2022/08/17 05:37:49;;;;;;;31.25;22.08;;;20.40;92.50;;;;;;5050821;28;20032;-58
2022/08/17 05:40:16;;;;;;;26.75;18.77;;;20.50;92.50;;;;;;5051221;28;20082;-60
2022/08/17 05:42:42;;;;;;;27.23;20.08;;;20.60;92.30;;;;;;5052410;28;20381;-59
2022/08/17 05:45:08;;;;;;;28.75;20.85;;;20.70;92.20;;;;;;5052174;28;20086;-60
2022/08/17 05:47:35;;;;;;;27.75;20.52;;;20.80;92.10;;;;;;5052489;28;20082;-60
2022/08/17 05:50:02;;;;;;;29.70;21.13;;;20.90;91.90;;;;;;5051564;28;20477;-57
2022/08/17 05:52:48;;;;;;;30.00;21.85;;;20.90;91.70;;;;;;5052130;28;20029;-59
2022/08/17 05:55:28;;;;;;;31.80;22.05;;;21.00;91.90;;;;;;5052732;28;20025;-60
2022/08/17 05:58:27;;;;;;;30.30;21.25;;;20.90;91.50;;;;;;5052707;28;20044;-59
2022/08/17 06:01:17;;;;;;;30.80;22.20;;;20.90;91.50;;;;;;5052493;28;20101;-58
2022/08/17 06:04:09;;;;;;;29.85;21.17;;;20.90;91.50;;;;;;5052411;28;20037;-61
2022/08/17 06:06:54;;;;;;;29.05;20.50;;;20.90;91.70;;;;;;5051975;28;20029;-59
2022/08/17 06:09:52;;;;;;;32.75;22.67;;;20.90;91.50;;;;;;5052763;28;20071;-61
2022/08/17 06:12:29;;;;;;;29.77;20.63;;;20.90;91.50;;;;;;5047564;28;20115;-61
2022/08/17 06:14:57;;;;;;;31.17;20.85;;;20.80;91.50;;;;;;5052258;28;20033;-62
2022/08/17 06:17:26;;;;;;;30.50;21.88;;;20.90;91.50;;;;;;5051195;28;20021;-61
2022/08/17 06:19:55;;;;;;;32.70;21.95;;;20.90;91.50;;;;;;5051741;28;20039;-63
2022/08/17 06:22:24;;;;;;;31.10;22.02;;;21.00;91.40;;;;;;5052226;28;20041;-61
2022/08/17 06:24:57;;;;;;;31.70;21.60;;;21.00;91.30;;;;;;5052420;28;20029;-62
2022/08/17 06:27:37;;;;;;;32.65;21.80;;;21.00;91.20;;;;;;5050705;28;20489;-64
2022/08/17 06:30:11;;;;;;;31.63;19.40;;;21.00;91.20;;;;;;5052825;28;20236;-65
2022/08/17 06:32:43;;;;;;;29.80;21.45;;;21.00;91.20;;;;;;5052208;28;20109;-60
2022/08/17 06:35:13;;;;;;;26.95;19.17;;;21.10;91.10;;;;;;5051739;28;20473;-64
2022/08/17 06:37:54;;;;;;;32.40;20.27;;;21.10;91.00;;;;;;5052090;28;20031;-66
2022/08/17 06:40:47;;;;;;;26.92;19.55;;;21.10;90.80;;;;;;5052112;28;20111;-65
2022/08/17 06:43:46;;;;;;;29.27;18.95;;;21.10;90.80;;;;;;5051947;28;20052;-64
2022/08/17 06:46:26;;;;;;;26.17;19.33;;;21.20;90.70;;;;;;5052216;28;20021;-62
2022/08/17 06:49:31;;;;;;;29.38;18.92;;;21.20;90.80;;;;;;5051715;28;20020;-64
2022/08/17 06:52:25;;;;;;;27.30;19.55;;;21.20;90.80;;;;;;5041681;28;20037;-62
2022/08/17 06:54:55;;;;;;;26.60;17.90;;;21.20;91.00;;;;;;5051298;28;20021;-66
2022/08/17 06:57:30;;;;;;;24.13;17.83;;;21.20;90.70;;;;;;5052012;28;20028;-65
2022/08/17 07:00:01;;;;;;;27.80;19.55;;;21.30;90.60;;;;;;5051942;28;20032;-61
2022/08/17 07:02:54;;;;;;;29.25;20.15;;;21.40;90.60;;;;;;5051060;28;20547;-62
2022/08/17 07:05:23;;;;;;;31.45;22.45;;;21.60;90.40;;;;;;5050820;28;20017;-59
2022/08/17 07:08:05;;;;;;;28.63;20.65;;;21.60;90.20;;;;;;5051713;28;20138;-63
2022/08/17 07:10:42;;;;;;;27.83;19.98;;;21.80;90.00;;;;;;5050996;28;20037;-61
2022/08/17 07:13:17;;;;;;;28.65;20.92;;;21.90;89.80;;;;;;5050485;28;20035;-63
2022/08/17 07:15:43;;;;;;;30.85;22.38;;;22.00;89.80;;;;;;5051046;28;20032;-61
2022/08/17 07:18:09;;;;;;;32.47;22.17;;;22.00;89.00;;;;;;5051522;28;20067;-60
2022/08/17 07:20:41;;;;;;;31.85;21.92;;;22.10;88.70;;;;;;5051328;28;20028;-60
2022/08/17 07:23:33;;;;;;;26.65;19.42;;;22.10;88.40;;;;;;5051065;28;20501;-63
2022/08/17 07:26:06;;;;;;;30.50;21.38;;;22.10;88.20;;;;;;5051562;28;20413;-60
2022/08/17 07:28:33;;;;;;;29.35;20.58;;;22.20;88.20;;;;;;5051699;28;20021;-60
2022/08/17 07:30:59;;;;;;;27.73;20.40;;;22.40;87.80;;;;;;5051179;28;20017;-64
2022/08/17 07:33:28;;;;;;;27.48;20.50;;;22.50;87.20;;;;;;5051608;28;20418;-61
2022/08/17 07:35:56;;;;;;;28.40;21.08;;;22.60;86.90;;;;;;5051730;28;20021;-60
2022/08/17 07:38:30;;;;;;;29.80;22.33;;;22.60;86.80;;;;;;5050677;28;20025;-60
2022/08/17 07:40:56;;;;;;;27.90;20.40;;;22.70;86.60;;;;;;5051161;28;20044;-62
2022/08/17 07:43:29;;;;;;;29.98;21.52;;;22.70;86.50;;;;;;5051328;28;20033;-62
2022/08/17 07:49:02;;;;;;;31.05;21.27;;;22.80;86.30;;;;;;5051473;28;20035;-63
2022/08/17 07:51:32;;;;;;;31.13;21.27;;;22.80;86.50;;;;;;5054757;28;20028;-60
2022/08/17 07:54:21;;;;;;;28.13;20.33;;;22.90;86.40;;;;;;5055504;28;20568;-63
2022/08/17 07:56:54;;;;;;;34.10;23.05;;;22.90;86.20;;;;;;5055367;28;20047;-63
2022/08/17 07:59:21;;;;;;;32.58;22.23;;;22.90;86.00;;;;;;5054752;28;20029;-61
2022/08/17 08:02:04;;;;;;;32.22;22.60;;;22.90;85.70;;;;;;5054983;28;20067;-60
2022/08/17 08:04:35;;;;;;;28.08;21.10;;;22.90;85.60;;;;;;5055129;28;20104;-61
2022/08/17 08:07:06;;;;;;;29.35;20.33;;;22.80;85.60;;;;;;5054378;28;20041;-61
2022/08/17 08:09:41;;;;;;;33.67;22.30;;;22.80;85.70;;;;;;5055118;28;20366;-61
2022/08/17 08:12:32;;;;;;;33.08;20.58;;;22.90;85.80;;;;;;5054363;28;20033;-62
2022/08/17 08:14:59;;;;;;;33.22;21.58;;;23.00;85.70;;;;;;5054934;28;20098;-62
2022/08/17 08:17:35;;;;;;;27.92;20.23;;;23.00;85.00;;;;;;5055155;28;20107;-64
2022/08/17 08:20:07;;;;;;;30.48;21.63;;;23.10;85.20;;;;;;5054284;28;20053;-64
2022/08/17 08:23:01;;;;;;;30.63;20.70;;;23.20;84.40;;;;;;5054802;28;20025;-62
2022/08/17 08:25:45;;;;;;;28.55;21.33;;;23.20;84.10;;;;;;5055076;28;20033;-62
2022/08/17 08:28:11;;;;;;;29.77;21.27;;;23.30;83.60;;;;;;5054145;28;20027;-63
2022/08/17 08:30:56;;;;;;;26.42;19.33;;;23.40;83.50;;;;;;5054587;28;20040;-60
2022/08/17 08:33:33;;;;;;;25.70;18.45;;;23.50;83.20;;;;;;5053884;28;20066;-62
2022/08/17 08:36:12;;;;;;;24.35;17.83;;;23.60;82.70;;;;;;5054317;28;20391;-64
2022/08/17 08:38:52;;;;;;;26.75;19.17;;;23.70;82.40;;;;;;5054582;28;20028;-62
2022/08/17 08:41:35;;;;;;;30.17;20.25;;;23.80;81.90;;;;;;5053569;28;20064;-63
2022/08/17 08:44:28;;;;;;;27.20;20.50;;;23.90;80.90;;;;;;5054202;28;20041;-62
2022/08/17 08:47:17;;;;;;;26.10;18.75;;;24.00;80.60;;;;;;5054430;28;20044;-63
2022/08/17 08:50:18;;;;;;;25.20;18.60;;;24.00;80.30;;;;;;5054305;28;20033;-63
2022/08/17 08:52:48;;;;;;;;;;;24.10;80.20;;;;;;5055240;28;20021;-63
2022/08/17 08:55:47;;;;;;;23.23;17.73;;;24.30;79.80;;;;;;5053546;28;20358;-63
2022/08/17 08:58:47;;;;;;;26.05;18.73;;;24.40;78.70;;;;;;5053984;28;20075;-62
2022/08/17 09:01:21;;;;;;;22.60;18.27;;;24.30;77.80;;;;;;5053638;28;20025;-60
2022/08/17 09:03:56;;;;;;;25.25;17.90;;;24.20;77.80;;;;;;5053758;28;20044;-61
2022/08/17 09:06:38;;;;;;;26.58;18.85;;;24.10;78.20;;;;;;5053614;28;20454;-61
2022/08/17 09:09:28;;;;;;;23.35;16.48;;;24.10;77.20;;;;;;5053112;28;20021;-61
2022/08/17 09:12:00;;;;;;;27.08;18.80;;;24.20;77.70;;;;;;5053987;28;20074;-61
2022/08/17 09:14:36;;;;;;;23.33;16.48;;;24.40;76.50;;;;;;5053521;28;20492;-60
2022/08/17 09:17:11;;;;;;;23.90;17.80;;;24.50;76.40;;;;;;5053020;28;20028;-60
2022/08/17 09:19:48;;;;;;;22.65;16.30;;;24.60;76.30;;;;;;5052120;28;20029;-60
2022/08/17 09:22:33;;;;;;;24.92;17.52;;;24.80;76.10;;;;;;5053030;28;20040;-60
2022/08/17 09:25:20;;;;;;;22.45;15.77;;;24.90;74.80;;;;;;5053490;28;20021;-63
2022/08/17 09:28:00;;;;;;;23.17;16.95;;;25.00;74.40;;;;;;5053354;28;20021;-63
2022/08/17 09:30:35;;;;;;;21.75;15.70;;;25.00;74.20;;;;;;5052610;28;20086;-63
2022/08/17 09:33:05;;;;;;;21.58;15.50;;;25.00;74.30;;;;;;5053295;28;20044;-60
2022/08/17 09:35:48;;;;;;;20.88;16.17;;;25.00;74.40;;;;;;5053504;28;20025;-63
2022/08/17 09:38:40;;;;;;;22.85;16.67;;;25.10;74.40;;;;;;5051216;28;20079;-62
2022/08/17 09:41:23;;;;;;;24.52;17.27;;;25.10;74.40;;;;;;5053020;28;20045;-62
2022/08/17 09:44:04;;;;;;;19.33;14.73;;;25.10;73.80;;;;;;5052346;28;20032;-64
2022/08/17 09:46:29;;;;;;;;;;;25.20;73.80;;;;;;5053466;28;20021;-61
2022/08/17 09:49:26;;;;;;;27.67;18.38;;;25.40;73.50;;;;;;5053055;28;19911;-60
2022/08/17 09:51:59;;;;;;;24.25;17.60;;;25.60;72.70;;;;;;5051848;28;20028;-62
2022/08/17 09:54:34;;;;;;;21.33;15.35;;;25.60;72.70;;;;;;5052939;28;20021;-63
2022/08/17 09:57:24;;;;;;;25.45;17.80;;;25.60;72.20;;;;;;5052610;28;20078;-63
2022/08/17 09:59:56;;;;;;;22.00;15.75;;;25.60;72.20;;;;;;5052405;28;20032;-63
2022/08/17 10:02:55;;;;;;;23.58;17.48;;;25.50;72.50;;;;;;5052443;28;20028;-63
2022/08/17 10:05:45;;;;;;;24.33;16.90;;;25.60;72.00;;;;;;5052243;28;20055;-62
2022/08/17 10:08:41;;;;;;;23.95;17.70;;;25.50;72.30;;;;;;5052153;28;20016;-61
2022/08/17 10:11:21;;;;;;;20.65;15.80;;;25.40;72.20;;;;;;5052599;28;20445;-63
2022/08/17 10:13:46;;;;;;;24.13;17.40;;;25.50;72.80;;;;;;5051355;28;20104;-61
2022/08/17 10:16:29;;;;;;;21.90;16.25;;;25.60;72.80;;;;;;5052210;28;20338;-61
2022/08/17 10:19:05;;;;;;;23.08;17.60;;;25.60;72.80;;;;;;5050371;28;20032;-61
2022/08/17 10:27:22;;;;;;;;;;;25.40;73.20;;;;;;5052215;28;20129;-60
2022/08/17 10:30:03;;;;;;;24.83;17.30;;;25.30;73.60;;;;;;5051995;28;19909;-63
2022/08/17 10:32:34;;;;;;;24.25;17.60;;;25.40;73.20;;;;;;5051853;28;20021;-62
2022/08/17 10:35:11;;;;;;;22.85;16.42;;;25.30;73.40;;;;;;5052222;28;20052;-64
2022/08/17 10:37:59;;;;;;;22.65;17.20;;;25.30;73.80;;;;;;5052010;28;20041;-65
2022/08/17 10:40:37;;;;;;;25.10;18.25;;;25.40;73.70;;;;;;5051268;28;20021;-64
2022/08/17 10:43:32;;;;;;;21.13;15.45;;;25.40;73.60;;;;;;5052145;28;20095;-63
2022/08/17 10:46:14;;;;;;;23.48;17.13;;;25.50;73.70;;;;;;5052145;28;20107;-63
2022/08/17 10:48:41;;;;;;;23.33;15.25;;;25.60;73.60;;;;;;5051541;28;20096;-63
2022/08/17 10:51:13;;;;;;;24.83;16.15;;;25.60;73.70;;;;;;5051777;28;20406;-63
2022/08/17 10:53:42;;;;;;;23.33;17.63;;;25.70;73.60;;;;;;5050948;28;20409;-62
2022/08/17 10:56:10;;;;;;;20.35;15.27;;;25.70;73.40;;;;;;5051713;28;20021;-62
2022/08/17 10:58:48;;;;;;;24.65;17.23;;;25.80;73.40;;;;;;5051598;28;20021;-61
2022/08/17 11:01:14;;;;;;;23.50;16.50;;;25.90;73.30;;;;;;5049656;28;20028;-64
2022/08/17 11:03:53;;;;;;;22.88;15.25;;;25.80;73.00;;;;;;5051956;28;20048;-61
2022/08/17 11:06:29;;;;;;;23.23;17.60;;;25.80;73.40;;;;;;5051913;28;20330;-62
2022/08/17 11:09:17;;;;;;;22.20;16.40;;;25.80;73.70;;;;;;5051077;28;20025;-62
2022/08/17 11:11:44;;;;;;;22.38;15.80;;;25.70;73.50;;;;;;5051738;28;20024;-62
2022/08/17 11:14:48;;;;;;;23.90;17.15;;;25.60;73.60;;;;;;5051412;28;20025;-61
2022/08/17 11:17:13;;;;;;;22.67;16.27;;;25.60;73.80;;;;;;4954337;28;20030;-61
2022/08/17 11:20:04;;;;;;;24.13;17.73;;;25.40;74.00;;;;;;4970719;28;20027;-62
2022/08/17 11:23:01;;;;;;;25.08;17.92;;;25.40;74.10;;;;;;5020556;28;20029;-60
2022/08/17 11:25:42;;;;;;;24.80;16.88;;;25.20;74.40;;;;;;5036694;28;20075;-63
2022/08/17 11:28:25;;;;;;;21.25;16.02;;;25.20;74.80;;;;;;5055864;28;20485;-61
2022/08/17 11:30:55;;;;;;;21.88;15.90;;;25.20;74.90;;;;;;5054943;28;20028;-61
2022/08/17 11:33:32;;;;;;;22.90;14.43;;;25.30;74.90;;;;;;5055319;28;20465;-60
2022/08/17 11:36:38;;;;;;;21.42;16.35;;;25.30;74.90;;;;;;5053502;28;20029;-60
2022/08/17 11:39:21;;;;;;;24.27;16.70;;;25.30;74.90;;;;;;5055282;28;20025;-64
2022/08/17 11:41:56;;;;;;;23.83;18.10;;;25.30;74.60;;;;;;5054912;28;20071;-63
2022/08/17 11:44:22;;;;;;;22.27;16.85;;;25.30;75.10;;;;;;5054601;28;20037;-61
2022/08/17 11:53:00;;;;;;;23.58;16.95;;;25.40;76.40;;;;;;5055380;28;20496;-61
2022/08/17 11:55:33;;;;;;;23.55;16.40;;;25.40;77.10;;;;;;5055449;28;20029;-64
2022/08/17 11:58:28;;;;;;;22.48;16.10;;;25.40;77.00;;;;;;5054695;28;20119;-64
2022/08/17 12:01:00;;;;;;;25.33;17.50;;;25.40;76.40;;;;;;5042782;28;20112;-61
2022/08/17 12:03:32;;;;;;;22.75;16.73;;;25.50;76.30;;;;;;5053736;28;20516;-64
2022/08/17 12:06:26;;;;;;;26.30;20.52;;;25.50;75.80;;;;;;5054223;28;20024;-63
2022/08/17 12:09:17;;;;;;;24.30;16.88;;;25.40;75.20;;;;;;5054709;28;20036;-61
2022/08/17 12:11:49;;;;;;;26.15;17.50;;;25.30;75.50;;;;;;5054021;28;20056;-64
2022/08/17 12:14:25;;;;;;;28.10;18.63;;;25.20;75.90;;;;;;5054671;28;20025;-63
2022/08/17 12:17:21;;;;;;;29.27;18.20;;;25.10;76.20;;;;;;5053633;28;20031;-62
2022/08/17 12:19:47;;;;;;;28.90;19.05;;;25.00;78.40;;;;;;5052548;28;20191;-62
2022/08/17 12:22:27;;;;;;;27.05;19.13;;;24.90;80.00;;;;;;5054465;28;20112;-63
2022/08/17 12:25:09;;;;;;;28.60;20.35;;;24.80;81.10;;;;;;5053249;28;20029;-63
2022/08/17 12:27:43;;;;;;;29.63;19.98;;;24.70;82.50;;;;;;5054141;28;20128;-63
2022/08/17 12:30:16;;;;;;;27.73;20.02;;;24.60;82.80;;;;;;5054442;28;20029;-64
2022/08/17 12:32:46;;;;;;;24.17;17.42;;;24.70;82.20;;;;;;5053995;28;20021;-65
2022/08/17 12:35:28;;;;;;;24.35;18.15;;;24.60;82.10;;;;;;5053812;28;20485;-64
2022/08/17 12:37:58;;;;;;;28.60;18.45;;;24.60;82.10;;;;;;5054595;28;20020;-65
2022/08/17 12:40:30;;;;;;;29.10;19.77;;;24.60;82.50;;;;;;5053566;28;20025;-61
2022/08/17 12:43:20;;;;;;;26.98;18.85;;;24.40;83.20;;;;;;5054212;28;20109;-60
2022/08/17 12:45:59;;;;;;;22.80;16.88;;;24.40;83.30;;;;;;5054032;28;20159;-62
2022/08/17 12:48:27;;;;;;;29.05;17.60;;;24.30;83.50;;;;;;5053391;28;20047;-64
2022/08/17 12:51:06;;;;;;;26.88;18.40;;;24.20;84.10;;;;;;5054334;28;20454;-61
2022/08/17 12:53:34;;;;;;;23.90;17.10;;;24.20;84.40;;;;;;5053541;28;20116;-62
2022/08/17 12:56:06;;;;;;;26.08;17.63;;;24.20;84.60;;;;;;5053579;28;20031;-65
2022/08/17 12:58:36;;;;;;;24.10;17.08;;;24.10;85.20;;;;;;5053780;28;20128;-62
2022/08/17 13:01:10;;;;;;;29.63;20.23;;;24.10;86.20;;;;;;5053202;28;20219;-63
2022/08/17 13:03:39;;;;;;;27.70;20.75;;;23.90;87.80;;;;;;5053893;28;20029;-63
2022/08/17 13:06:08;;;;;;;28.95;20.98;;;23.60;90.00;;;;;;5053678;28;20026;-60
2022/08/17 13:08:36;;;;;;;32.13;21.50;;;23.40;90.70;;;;;;5052946;28;20059;-63
2022/08/17 13:11:08;;;;;;;30.23;20.30;;;23.20;91.50;;;;;;5053261;28;20021;-62
2022/08/17 13:13:41;;;;;;;32.55;22.33;;;23.00;92.20;;;;;;5053420;28;20483;-64
2022/08/17 13:16:16;;;;;;;29.60;20.85;;;22.80;92.90;;;;;;5053107;28;20029;-60
2022/08/17 13:18:46;;;;;;;32.53;23.50;;;22.70;93.90;;;;;;5053553;28;20580;-64
2022/08/17 13:21:18;;;;;;;;;;;22.70;95.00;;;;;;5053556;28;20397;-63
2022/08/17 13:24:12;;;;;;;33.35;24.40;;;22.60;95.60;;;;;;5053139;28;19912;-60
2022/08/17 13:26:57;;;;;;;36.67;24.00;;;22.50;95.60;;;;;;5053369;28;20014;-61